createdAt,value
2022-10-31T00:00:17.477Z,1016.57
2022-10-31T00:01:17.471Z,1016.59
2022-10-31T00:02:17.523Z,1016.61
2022-10-31T00:03:17.454Z,1016.61
2022-10-31T00:04:17.447Z,1016.58
2022-10-31T00:05:17.448Z,1016.58
2022-10-31T00:06:17.469Z,1016.55
2022-10-31T00:07:17.447Z,1016.53
2022-10-31T00:08:17.451Z,1016.55
2022-10-31T00:09:17.461Z,1016.55
2022-10-31T00:10:17.442Z,1016.61
2022-10-31T00:11:17.447Z,1016.63
2022-10-31T00:12:17.436Z,1016.66
2022-10-31T00:13:17.560Z,1016.64
2022-10-31T00:14:17.437Z,1016.66
2022-10-31T00:15:17.439Z,1016.68
2022-10-31T00:16:17.438Z,1016.69
2022-10-31T00:17:17.440Z,1016.69
2022-10-31T00:18:17.430Z,1016.62
2022-10-31T00:19:17.440Z,1016.61
2022-10-31T00:20:17.436Z,1016.63
2022-10-31T00:21:17.444Z,1016.65
2022-10-31T00:22:17.423Z,1016.67
2022-10-31T00:23:17.439Z,1016.63
2022-10-31T00:24:17.423Z,1016.59
2022-10-31T00:25:17.454Z,1016.58
2022-10-31T00:26:17.431Z,1016.61
2022-10-31T00:27:17.430Z,1016.66
2022-10-31T00:29:17.426Z,1016.58
2022-10-31T00:30:17.424Z,1016.56
2022-10-31T00:31:17.433Z,1016.58
2022-10-31T00:32:17.416Z,1016.51
2022-10-31T00:33:17.420Z,1016.50
2022-10-31T00:34:17.414Z,1016.45
2022-10-31T00:35:17.418Z,1016.46
2022-10-31T00:36:17.409Z,1016.52
2022-10-31T00:37:17.412Z,1016.63
2022-10-31T00:38:17.409Z,1016.71
2022-10-31T00:39:17.417Z,1016.78
2022-10-31T00:40:17.399Z,1016.78
2022-10-31T00:41:17.416Z,1016.78
2022-10-31T00:42:17.399Z,1016.79
2022-10-31T00:43:17.400Z,1016.85
2022-10-31T00:44:17.400Z,1016.89
2022-10-31T00:45:17.401Z,1016.90
2022-10-31T00:46:17.391Z,1016.93
2022-10-31T00:47:17.399Z,1016.90
2022-10-31T00:48:17.397Z,1016.91
2022-10-31T00:49:17.388Z,1016.97
2022-10-31T00:50:17.393Z,1016.93
2022-10-31T00:51:17.393Z,1016.94
2022-10-31T00:52:17.382Z,1016.93
2022-10-31T00:53:17.387Z,1016.91
2022-10-31T00:54:17.394Z,1016.91
2022-10-31T00:55:17.389Z,1016.90
2022-10-31T00:56:17.388Z,1016.90
2022-10-31T00:57:17.400Z,1016.90
2022-10-31T00:58:17.389Z,1016.84
2022-10-31T00:59:17.375Z,1016.90
2022-10-31T01:00:17.379Z,1016.87
2022-10-31T01:01:17.510Z,1016.90
2022-10-31T01:02:17.574Z,1016.87
2022-10-31T01:03:17.391Z,1016.91
2022-10-31T01:04:17.376Z,1016.86
2022-10-31T01:05:17.364Z,1016.84
2022-10-31T01:06:17.373Z,1016.82
2022-10-31T01:07:17.371Z,1016.75
2022-10-31T01:08:17.363Z,1016.69
2022-10-31T01:09:17.375Z,1016.62
2022-10-31T01:10:17.377Z,1016.64
2022-10-31T01:11:17.377Z,1016.63
2022-10-31T01:12:17.365Z,1016.67
2022-10-31T01:13:17.415Z,1016.67
2022-10-31T01:14:17.367Z,1016.70
2022-10-31T01:15:17.372Z,1016.69
2022-10-31T01:16:17.357Z,1016.68
2022-10-31T01:17:17.347Z,1016.69
2022-10-31T01:18:17.347Z,1016.66
2022-10-31T01:19:17.347Z,1016.68
2022-10-31T01:20:17.354Z,1016.68
2022-10-31T01:21:17.351Z,1016.65
2022-10-31T01:22:17.345Z,1016.62
2022-10-31T01:23:17.363Z,1016.66
2022-10-31T01:24:17.347Z,1016.65
2022-10-31T01:25:17.346Z,1016.62
2022-10-31T01:26:17.344Z,1016.63
2022-10-31T01:27:17.346Z,1016.60
2022-10-31T01:28:17.387Z,1016.57
2022-10-31T01:29:17.364Z,1016.59
2022-10-31T01:30:17.338Z,1016.57
2022-10-31T01:31:17.336Z,1016.55
2022-10-31T01:32:17.333Z,1016.57
2022-10-31T01:33:17.328Z,1016.53
2022-10-31T01:34:17.342Z,1016.50
2022-10-31T01:35:17.331Z,1016.49
2022-10-31T01:36:17.325Z,1016.48
2022-10-31T01:37:17.336Z,1016.48
2022-10-31T01:38:17.340Z,1016.49
2022-10-31T01:39:17.330Z,1016.49
2022-10-31T01:40:17.329Z,1016.50
2022-10-31T01:41:17.328Z,1016.49
2022-10-31T01:42:17.327Z,1016.43
2022-10-31T01:43:17.362Z,1016.39
2022-10-31T01:44:17.327Z,1016.37
2022-10-31T01:45:17.338Z,1016.40
2022-10-31T01:46:17.314Z,1016.40
2022-10-31T01:47:17.312Z,1016.44
2022-10-31T01:48:17.310Z,1016.43
2022-10-31T01:49:17.309Z,1016.44
2022-10-31T01:50:17.314Z,1016.47
2022-10-31T01:51:17.313Z,1016.47
2022-10-31T01:52:17.318Z,1016.42
2022-10-31T01:53:17.308Z,1016.39
2022-10-31T01:54:17.308Z,1016.36
2022-10-31T01:55:17.309Z,1016.31
2022-10-31T01:56:17.314Z,1016.29
2022-10-31T01:57:17.304Z,1016.27
2022-10-31T01:59:17.299Z,1016.27
2022-10-31T02:00:17.294Z,1016.29
2022-10-31T02:01:17.588Z,1016.29
2022-10-31T02:02:17.523Z,1016.28
2022-10-31T02:03:17.289Z,1016.28
2022-10-31T02:04:17.303Z,1016.28
2022-10-31T02:05:17.285Z,1016.32
2022-10-31T02:06:17.349Z,1016.29
2022-10-31T02:07:17.292Z,1016.32
2022-10-31T02:08:17.295Z,1016.31
2022-10-31T02:09:17.280Z,1016.28
2022-10-31T02:10:17.287Z,1016.31
2022-10-31T02:11:17.279Z,1016.26
2022-10-31T02:12:17.281Z,1016.26
2022-10-31T02:13:17.333Z,1016.23
2022-10-31T02:14:17.284Z,1016.24
2022-10-31T02:15:17.272Z,1016.28
2022-10-31T02:16:17.274Z,1016.29
2022-10-31T02:17:17.288Z,1016.26
2022-10-31T02:18:17.276Z,1016.30
2022-10-31T02:19:17.274Z,1016.31
2022-10-31T02:20:17.267Z,1016.34
2022-10-31T02:21:17.273Z,1016.40
2022-10-31T02:22:17.261Z,1016.39
2022-10-31T02:23:17.273Z,1016.39
2022-10-31T02:24:17.266Z,1016.39
2022-10-31T02:25:17.271Z,1016.39
2022-10-31T02:26:17.264Z,1016.36
2022-10-31T02:27:17.261Z,1016.36
2022-10-31T02:29:17.265Z,1016.40
2022-10-31T02:30:17.255Z,1016.43
2022-10-31T02:31:17.262Z,1016.40
2022-10-31T02:32:17.259Z,1016.43
2022-10-31T02:33:17.266Z,1016.44
2022-10-31T02:34:17.260Z,1016.39
2022-10-31T02:35:17.257Z,1016.41
2022-10-31T02:36:17.242Z,1016.35
2022-10-31T02:37:17.245Z,1016.37
2022-10-31T02:38:17.248Z,1016.38
2022-10-31T02:39:17.247Z,1016.40
2022-10-31T02:40:17.245Z,1016.40
2022-10-31T02:41:17.290Z,1016.42
2022-10-31T02:42:17.249Z,1016.38
2022-10-31T02:43:17.270Z,1016.40
2022-10-31T02:44:17.244Z,1016.44
2022-10-31T02:45:17.252Z,1016.45
2022-10-31T02:46:17.236Z,1016.45
2022-10-31T02:47:17.249Z,1016.52
2022-10-31T02:48:17.227Z,1016.51
2022-10-31T02:49:17.250Z,1016.54
2022-10-31T02:50:17.234Z,1016.52
2022-10-31T02:51:17.227Z,1016.53
2022-10-31T02:52:17.220Z,1016.50
2022-10-31T02:53:17.221Z,1016.48
2022-10-31T02:54:17.225Z,1016.47
2022-10-31T02:55:17.218Z,1016.48
2022-10-31T02:56:17.228Z,1016.50
2022-10-31T02:57:17.228Z,1016.47
2022-10-31T02:58:17.214Z,1016.52
2022-10-31T02:59:17.212Z,1016.52
2022-10-31T03:00:17.212Z,1016.51
2022-10-31T03:01:17.366Z,1016.50
2022-10-31T03:02:17.490Z,1016.49
2022-10-31T03:03:17.213Z,1016.47
2022-10-31T03:04:17.210Z,1016.47
2022-10-31T03:05:17.229Z,1016.41
2022-10-31T03:06:17.215Z,1016.42
2022-10-31T03:07:17.215Z,1016.39
2022-10-31T03:08:17.201Z,1016.40
2022-10-31T03:09:17.199Z,1016.39
2022-10-31T03:10:17.198Z,1016.41
2022-10-31T03:11:17.207Z,1016.44
2022-10-31T03:12:17.200Z,1016.41
2022-10-31T03:13:17.265Z,1016.42
2022-10-31T03:14:17.190Z,1016.48
2022-10-31T03:15:17.194Z,1016.43
2022-10-31T03:16:17.198Z,1016.44
2022-10-31T03:17:17.199Z,1016.49
2022-10-31T03:18:17.190Z,1016.47
2022-10-31T03:19:17.193Z,1016.49
2022-10-31T03:20:17.194Z,1016.49
2022-10-31T03:21:17.215Z,1016.50
2022-10-31T03:22:17.187Z,1016.54
2022-10-31T03:23:17.191Z,1016.50
2022-10-31T03:24:59.751Z,1016.53
2022-10-31T03:25:59.760Z,1016.53
2022-10-31T03:26:59.747Z,1016.50
2022-10-31T03:28:00.039Z,1016.47
2022-10-31T03:28:59.761Z,1016.50
2022-10-31T03:29:59.753Z,1016.54
2022-10-31T03:31:02.309Z,1016.51
2022-10-31T03:31:59.749Z,1016.55
2022-10-31T03:33:00.030Z,1016.52
2022-10-31T03:33:59.759Z,1016.51
2022-10-31T03:34:59.738Z,1016.49
2022-10-31T03:35:59.737Z,1016.45
2022-10-31T03:36:59.765Z,1016.45
2022-10-31T03:38:01.743Z,1016.47
2022-10-31T03:38:59.730Z,1016.45
2022-10-31T03:39:59.742Z,1016.45
2022-10-31T03:40:59.730Z,1016.41
2022-10-31T03:41:59.735Z,1016.44
2022-10-31T03:43:00.050Z,1016.45
2022-10-31T03:43:59.735Z,1016.43
2022-10-31T03:44:59.722Z,1016.41
2022-10-31T03:45:59.729Z,1016.42
2022-10-31T03:46:59.727Z,1016.42
2022-10-31T03:48:00.070Z,1016.43
2022-10-31T03:48:59.729Z,1016.44
2022-10-31T03:49:59.736Z,1016.39
2022-10-31T03:50:59.717Z,1016.41
2022-10-31T03:51:59.728Z,1016.40
2022-10-31T03:52:59.737Z,1016.43
2022-10-31T03:53:59.745Z,1016.38
2022-10-31T03:54:59.709Z,1016.41
2022-10-31T03:55:59.710Z,1016.40
2022-10-31T03:56:59.713Z,1016.39
2022-10-31T03:58:00.109Z,1016.39
2022-10-31T03:58:59.710Z,1016.39
2022-10-31T03:59:59.712Z,1016.44
2022-10-31T04:00:59.761Z,1016.43
2022-10-31T04:01:59.912Z,1016.42
2022-10-31T04:03:00.098Z,1016.44
2022-10-31T04:03:59.697Z,1016.40
2022-10-31T04:04:59.699Z,1016.39
2022-10-31T04:05:59.704Z,1016.39
2022-10-31T04:06:59.701Z,1016.38
2022-10-31T04:07:59.699Z,1016.39
2022-10-31T04:08:59.717Z,1016.43
2022-10-31T04:09:59.700Z,1016.46
2022-10-31T04:10:59.691Z,1016.48
2022-10-31T04:11:59.694Z,1016.49
2022-10-31T04:13:00.088Z,1016.53
2022-10-31T04:13:59.690Z,1016.48
2022-10-31T04:14:59.686Z,1016.45
2022-10-31T04:15:59.689Z,1016.45
2022-10-31T04:16:59.687Z,1016.42
2022-10-31T04:17:59.983Z,1016.41
2022-10-31T04:18:59.694Z,1016.35
2022-10-31T04:19:59.685Z,1016.39
2022-10-31T04:20:59.688Z,1016.40
2022-10-31T04:21:59.679Z,1016.37
2022-10-31T04:22:59.678Z,1016.39
2022-10-31T04:23:59.682Z,1016.39
2022-10-31T04:24:59.691Z,1016.37
2022-10-31T04:25:59.672Z,1016.42
2022-10-31T04:26:59.668Z,1016.39
2022-10-31T04:27:59.924Z,1016.41
2022-10-31T04:28:59.663Z,1016.39
2022-10-31T04:29:59.662Z,1016.44
2022-10-31T04:30:59.663Z,1016.39
2022-10-31T04:31:59.671Z,1016.38
2022-10-31T04:32:59.974Z,1016.38
2022-10-31T04:33:59.658Z,1016.33
2022-10-31T04:34:59.663Z,1016.35
2022-10-31T04:35:59.653Z,1016.36
2022-10-31T04:36:59.663Z,1016.34
2022-10-31T04:37:59.662Z,1016.38
2022-10-31T04:38:59.657Z,1016.28
2022-10-31T04:39:59.658Z,1016.26
2022-10-31T04:40:59.680Z,1016.21
2022-10-31T04:41:59.658Z,1016.21
2022-10-31T04:43:00.013Z,1016.22
2022-10-31T04:43:59.647Z,1016.24
2022-10-31T04:44:59.646Z,1016.22
2022-10-31T04:45:59.702Z,1016.24
2022-10-31T04:46:59.645Z,1016.26
2022-10-31T04:47:59.994Z,1016.25
2022-10-31T04:48:59.635Z,1016.28
2022-10-31T04:49:59.639Z,1016.26
2022-10-31T04:50:59.633Z,1016.27
2022-10-31T04:51:59.640Z,1016.27
2022-10-31T04:52:59.635Z,1016.31
2022-10-31T04:53:59.645Z,1016.30
2022-10-31T04:54:59.631Z,1016.29
2022-10-31T04:55:59.628Z,1016.33
2022-10-31T04:56:59.655Z,1016.34
2022-10-31T04:58:00.168Z,1016.31
2022-10-31T04:58:59.621Z,1016.28
2022-10-31T04:59:59.629Z,1016.27
2022-10-31T05:00:59.637Z,1016.23
2022-10-31T05:01:59.846Z,1016.19
2022-10-31T05:03:00.006Z,1016.17
2022-10-31T05:03:59.628Z,1016.09
2022-10-31T05:04:59.621Z,1016.08
2022-10-31T05:05:59.625Z,1016.10
2022-10-31T05:06:59.608Z,1016.11
2022-10-31T05:07:59.624Z,1016.14
2022-10-31T05:08:59.615Z,1016.10
2022-10-31T05:09:59.620Z,1016.10
2022-10-31T05:11:03.288Z,1016.11
2022-10-31T05:11:59.610Z,1016.10
2022-10-31T05:13:00.197Z,1016.11
2022-10-31T05:13:59.608Z,1016.07
2022-10-31T05:14:59.604Z,1016.08
2022-10-31T05:15:59.604Z,1016.08
2022-10-31T05:16:59.601Z,1016.09
2022-10-31T05:18:00.037Z,1016.08
2022-10-31T05:18:59.594Z,1016.11
2022-10-31T05:19:59.589Z,1016.06
2022-10-31T05:20:59.599Z,1016.06
2022-10-31T05:21:59.594Z,1016.11
2022-10-31T05:22:59.597Z,1016.08
2022-10-31T05:23:59.589Z,1016.06
2022-10-31T05:24:59.591Z,1016.04
2022-10-31T05:25:59.589Z,1016.01
2022-10-31T05:26:59.586Z,1016.04
2022-10-31T05:28:00.028Z,1016.04
2022-10-31T05:28:59.608Z,1016.00
2022-10-31T05:30:59.583Z,1015.95
2022-10-31T05:31:59.573Z,1015.95
2022-10-31T05:32:59.926Z,1015.93
2022-10-31T05:33:59.577Z,1015.93
2022-10-31T05:34:59.582Z,1015.94
2022-10-31T05:35:59.576Z,1015.95
2022-10-31T05:36:59.574Z,1015.95
2022-10-31T05:37:59.565Z,1015.94
2022-10-31T05:38:59.571Z,1015.92
2022-10-31T05:40:05.178Z,1015.89
2022-10-31T05:40:59.559Z,1015.91
2022-10-31T05:41:59.570Z,1015.90
2022-10-31T05:43:00.124Z,1015.91
2022-10-31T05:43:59.563Z,1015.88
2022-10-31T05:44:59.586Z,1015.87
2022-10-31T05:45:59.563Z,1015.87
2022-10-31T05:46:59.566Z,1015.85
2022-10-31T05:48:00.015Z,1015.85
2022-10-31T05:49:01.807Z,1015.83
2022-10-31T05:49:59.557Z,1015.83
2022-10-31T05:50:59.547Z,1015.82
2022-10-31T05:51:59.550Z,1015.82
2022-10-31T05:52:59.558Z,1015.82
2022-10-31T05:53:59.552Z,1015.81
2022-10-31T05:54:59.550Z,1015.86
2022-10-31T05:55:59.538Z,1015.87
2022-10-31T05:56:59.545Z,1015.84
2022-10-31T05:58:00.088Z,1015.85
2022-10-31T05:58:59.539Z,1015.88
2022-10-31T05:59:59.544Z,1015.85
2022-10-31T06:00:59.555Z,1015.85
2022-10-31T06:01:59.531Z,1015.85
2022-10-31T06:02:59.559Z,1015.84
2022-10-31T06:03:59.532Z,1015.83
2022-10-31T06:04:59.629Z,1015.86
2022-10-31T06:05:59.529Z,1015.85
2022-10-31T06:06:59.531Z,1015.84
2022-10-31T06:07:59.894Z,1015.83
2022-10-31T06:08:59.522Z,1015.88
2022-10-31T06:09:59.527Z,1015.84
2022-10-31T06:10:59.521Z,1015.86
2022-10-31T06:11:59.533Z,1015.85
2022-10-31T06:12:59.543Z,1015.88
2022-10-31T06:13:59.520Z,1015.88
2022-10-31T06:14:59.525Z,1015.88
2022-10-31T06:15:59.512Z,1015.90
2022-10-31T06:16:59.529Z,1015.87
2022-10-31T06:17:59.894Z,1015.89
2022-10-31T06:18:59.522Z,1015.93
2022-10-31T06:19:59.510Z,1015.95
2022-10-31T06:20:59.505Z,1015.94
2022-10-31T06:21:59.507Z,1015.89
2022-10-31T06:22:59.922Z,1015.91
2022-10-31T06:23:59.507Z,1015.90
2022-10-31T06:24:59.505Z,1015.88
2022-10-31T06:25:59.505Z,1015.89
2022-10-31T06:26:59.505Z,1015.89
2022-10-31T06:27:59.495Z,1015.91
2022-10-31T06:29:03.143Z,1015.93
2022-10-31T06:29:59.503Z,1015.91
2022-10-31T06:30:59.500Z,1015.91
2022-10-31T06:31:59.506Z,1015.97
2022-10-31T06:32:59.808Z,1015.96
2022-10-31T06:33:59.490Z,1015.95
2022-10-31T06:34:59.493Z,1015.93
2022-10-31T06:35:59.489Z,1015.95
2022-10-31T06:36:59.484Z,1015.94
2022-10-31T06:37:59.751Z,1015.93
2022-10-31T06:38:59.492Z,1015.93
2022-10-31T06:39:59.490Z,1015.89
2022-10-31T06:40:59.484Z,1015.88
2022-10-31T06:41:59.473Z,1015.85
2022-10-31T06:42:59.477Z,1015.89
2022-10-31T06:44:01.385Z,1015.83
2022-10-31T06:44:59.481Z,1015.83
2022-10-31T06:45:59.474Z,1015.83
2022-10-31T06:46:59.475Z,1015.85
2022-10-31T06:48:23.260Z,1015.83
2022-10-31T06:48:59.494Z,1015.82
2022-10-31T06:49:59.469Z,1015.84
2022-10-31T06:50:59.779Z,1015.83
2022-10-31T06:51:59.465Z,1015.78
2022-10-31T06:52:59.627Z,1015.82
2022-10-31T06:53:59.482Z,1015.76
2022-10-31T06:54:59.474Z,1015.77
2022-10-31T06:55:59.465Z,1015.76
2022-10-31T06:56:59.465Z,1015.75
2022-10-31T06:58:02.018Z,1015.75
2022-10-31T06:58:59.457Z,1015.78
2022-10-31T06:59:59.451Z,1015.83
2022-10-31T07:00:59.594Z,1015.83
2022-10-31T07:01:59.599Z,1015.83
2022-10-31T07:02:59.447Z,1015.81
2022-10-31T07:03:59.442Z,1015.79
2022-10-31T07:04:59.469Z,1015.80
2022-10-31T07:05:59.447Z,1015.88
2022-10-31T07:06:59.455Z,1015.86
2022-10-31T07:07:59.800Z,1015.80
2022-10-31T07:08:59.448Z,1015.82
2022-10-31T07:09:59.486Z,1015.83
2022-10-31T07:10:59.445Z,1015.81
2022-10-31T07:11:59.438Z,1015.85
2022-10-31T07:12:59.769Z,1015.86
2022-10-31T07:13:59.524Z,1015.90
2022-10-31T07:14:59.442Z,1015.93
2022-10-31T07:15:59.464Z,1015.87
2022-10-31T07:16:59.428Z,1015.89
2022-10-31T07:17:59.449Z,1015.89
2022-10-31T07:18:59.433Z,1015.89
2022-10-31T07:19:59.429Z,1015.88
2022-10-31T07:20:59.453Z,1015.86
2022-10-31T07:21:59.429Z,1015.89
2022-10-31T07:22:59.661Z,1015.91
2022-10-31T07:23:59.425Z,1015.99
2022-10-31T07:24:59.428Z,1016.02
2022-10-31T07:25:59.423Z,1016.03
2022-10-31T07:27:59.820Z,1016.08
2022-10-31T07:28:59.423Z,1016.08
2022-10-31T07:29:59.422Z,1016.14
2022-10-31T07:30:59.426Z,1016.13
2022-10-31T07:31:59.419Z,1016.17
2022-10-31T07:32:59.417Z,1016.24
2022-10-31T07:33:59.415Z,1016.18
2022-10-31T07:34:59.408Z,1016.20
2022-10-31T07:35:59.415Z,1016.20
2022-10-31T07:36:59.425Z,1016.23
2022-10-31T07:37:59.808Z,1016.24
2022-10-31T07:38:59.420Z,1016.21
2022-10-31T07:39:59.415Z,1016.28
2022-10-31T07:40:59.422Z,1016.23
2022-10-31T07:41:59.411Z,1016.24
2022-10-31T07:42:59.399Z,1016.24
2022-10-31T07:43:59.405Z,1016.23
2022-10-31T07:44:59.409Z,1016.19
2022-10-31T07:45:59.401Z,1016.20
2022-10-31T07:46:59.397Z,1016.21
2022-10-31T07:47:59.747Z,1016.16
2022-10-31T07:48:59.423Z,1016.21
2022-10-31T07:49:59.396Z,1016.22
2022-10-31T07:50:59.399Z,1016.19
2022-10-31T07:51:59.391Z,1016.22
2022-10-31T07:52:59.420Z,1016.19
2022-10-31T07:53:59.391Z,1016.21
2022-10-31T07:54:59.388Z,1016.17
2022-10-31T07:55:59.382Z,1016.20
2022-10-31T07:56:59.388Z,1016.24
2022-10-31T07:57:59.814Z,1016.23
2022-10-31T07:58:59.387Z,1016.22
2022-10-31T07:59:59.374Z,1016.23
2022-10-31T08:00:59.527Z,1016.22
2022-10-31T08:01:59.380Z,1016.20
2022-10-31T08:02:59.671Z,1016.20
2022-10-31T08:03:59.377Z,1016.21
2022-10-31T08:05:01.309Z,1016.22
2022-10-31T08:05:59.370Z,1016.23
2022-10-31T08:06:59.369Z,1016.22
2022-10-31T08:07:59.641Z,1016.23
2022-10-31T08:08:59.390Z,1016.19
2022-10-31T08:09:59.365Z,1016.18
2022-10-31T08:10:59.364Z,1016.15
2022-10-31T08:11:59.380Z,1016.18
2022-10-31T08:12:59.362Z,1016.13
2022-10-31T08:13:59.359Z,1016.17
2022-10-31T08:14:59.358Z,1016.16
2022-10-31T08:15:59.366Z,1016.13
2022-10-31T08:16:59.367Z,1016.14
2022-10-31T08:17:59.697Z,1016.08
2022-10-31T08:18:59.363Z,1016.07
2022-10-31T08:19:59.355Z,1016.07
2022-10-31T08:20:59.382Z,1016.10
2022-10-31T08:21:59.352Z,1016.07
2022-10-31T08:22:59.365Z,1016.04
2022-10-31T08:23:59.362Z,1016.01
2022-10-31T08:24:59.390Z,1016.01
2022-10-31T08:25:59.360Z,1015.96
2022-10-31T08:26:59.347Z,1015.97
2022-10-31T08:27:59.692Z,1016.02
2022-10-31T08:28:59.346Z,1015.94
2022-10-31T08:29:59.345Z,1015.97
2022-10-31T08:30:59.352Z,1015.97
2022-10-31T08:31:59.346Z,1015.96
2022-10-31T08:32:59.340Z,1015.98
2022-10-31T08:33:59.346Z,1015.97
2022-10-31T08:34:59.353Z,1015.95
2022-10-31T08:35:59.357Z,1016.01
2022-10-31T08:36:59.334Z,1015.94
2022-10-31T08:37:59.729Z,1015.94
2022-10-31T08:39:02.068Z,1015.91
2022-10-31T08:39:59.330Z,1015.90
2022-10-31T08:40:59.347Z,1015.87
2022-10-31T08:41:59.337Z,1015.87
2022-10-31T08:42:59.332Z,1015.85
2022-10-31T08:43:59.422Z,1015.82
2022-10-31T08:44:59.412Z,1015.80
2022-10-31T08:45:59.327Z,1015.79
2022-10-31T08:46:59.329Z,1015.81
2022-10-31T08:47:59.729Z,1015.83
2022-10-31T08:48:59.338Z,1015.80
2022-10-31T08:49:59.331Z,1015.82
2022-10-31T08:50:59.327Z,1015.80
2022-10-31T08:51:59.320Z,1015.78
2022-10-31T08:53:05.377Z,1015.79
2022-10-31T08:53:59.320Z,1015.81
2022-10-31T08:54:59.319Z,1015.85
2022-10-31T08:55:59.317Z,1015.82
2022-10-31T08:56:59.337Z,1015.84
2022-10-31T08:58:00.144Z,1015.80
2022-10-31T08:58:59.330Z,1015.77
2022-10-31T08:59:59.318Z,1015.75
2022-10-31T09:00:59.336Z,1015.77
2022-10-31T09:01:59.529Z,1015.75
2022-10-31T09:02:59.307Z,1015.77
2022-10-31T09:03:59.300Z,1015.79
2022-10-31T09:04:59.309Z,1015.78
2022-10-31T09:05:59.425Z,1015.74
2022-10-31T09:07:20.010Z,1015.74
2022-10-31T09:07:59.709Z,1015.74
2022-10-31T09:08:59.297Z,1015.72
2022-10-31T09:09:59.332Z,1015.74
2022-10-31T09:10:59.297Z,1015.70
2022-10-31T09:11:59.299Z,1015.67
2022-10-31T09:12:59.318Z,1015.69
2022-10-31T09:13:59.325Z,1015.73
2022-10-31T09:14:59.298Z,1015.66
2022-10-31T09:15:59.284Z,1015.65
2022-10-31T09:16:59.294Z,1015.61
2022-10-31T09:17:59.701Z,1015.60
2022-10-31T09:18:59.302Z,1015.62
2022-10-31T09:19:59.286Z,1015.59
2022-10-31T09:20:59.289Z,1015.60
2022-10-31T09:21:59.286Z,1015.58
2022-10-31T09:22:59.278Z,1015.60
2022-10-31T09:23:59.278Z,1015.58
2022-10-31T09:24:59.275Z,1015.57
2022-10-31T09:25:59.281Z,1015.60
2022-10-31T09:26:59.275Z,1015.55
2022-10-31T09:27:59.826Z,1015.56
2022-10-31T09:28:59.301Z,1015.52
2022-10-31T09:29:59.277Z,1015.52
2022-10-31T09:30:59.274Z,1015.51
2022-10-31T09:31:59.268Z,1015.50
2022-10-31T09:32:59.271Z,1015.45
2022-10-31T09:33:59.278Z,1015.47
2022-10-31T09:34:59.286Z,1015.48
2022-10-31T09:35:59.266Z,1015.48
2022-10-31T09:36:59.263Z,1015.48
2022-10-31T09:37:59.684Z,1015.50
2022-10-31T09:38:59.266Z,1015.44
2022-10-31T09:39:59.264Z,1015.40
2022-10-31T09:40:59.263Z,1015.43
2022-10-31T09:41:59.270Z,1015.41
2022-10-31T09:42:59.252Z,1015.38
2022-10-31T09:43:59.252Z,1015.37
2022-10-31T09:44:59.287Z,1015.35
2022-10-31T09:45:59.249Z,1015.36
2022-10-31T09:46:59.260Z,1015.30
2022-10-31T09:47:59.514Z,1015.29
2022-10-31T09:48:59.256Z,1015.26
2022-10-31T09:49:59.353Z,1015.20
2022-10-31T09:50:59.247Z,1015.23
2022-10-31T09:51:59.302Z,1015.22
2022-10-31T09:52:59.561Z,1015.21
2022-10-31T09:53:59.261Z,1015.15
2022-10-31T09:54:59.238Z,1015.16
2022-10-31T09:55:59.243Z,1015.12
2022-10-31T09:56:59.252Z,1015.13
2022-10-31T09:57:59.245Z,1015.10
2022-10-31T09:58:59.337Z,1015.06
2022-10-31T09:59:59.260Z,1015.06
2022-10-31T10:00:59.347Z,1015.07
2022-10-31T10:01:59.372Z,1015.03
2022-10-31T10:02:59.621Z,1015.07
2022-10-31T10:03:59.235Z,1015.05
2022-10-31T10:04:59.225Z,1015.06
2022-10-31T10:05:59.231Z,1015.08
2022-10-31T10:06:59.223Z,1015.02
2022-10-31T10:07:59.229Z,1014.98
2022-10-31T10:08:59.240Z,1014.97
2022-10-31T10:09:59.229Z,1014.98
2022-10-31T10:10:59.229Z,1014.96
2022-10-31T10:11:59.224Z,1015.00
2022-10-31T10:13:02.210Z,1014.99
2022-10-31T10:13:59.217Z,1014.96
2022-10-31T10:14:59.214Z,1014.95
2022-10-31T10:15:59.224Z,1014.94
2022-10-31T10:16:59.243Z,1014.88
2022-10-31T10:17:59.215Z,1014.91
2022-10-31T10:18:59.211Z,1014.89
2022-10-31T10:19:59.211Z,1014.88
2022-10-31T10:20:59.215Z,1014.91
2022-10-31T10:21:59.207Z,1014.85
2022-10-31T10:22:59.722Z,1014.84
2022-10-31T10:23:59.219Z,1014.82
2022-10-31T10:24:59.216Z,1014.76
2022-10-31T10:25:59.203Z,1014.77
2022-10-31T10:26:59.208Z,1014.77
2022-10-31T10:27:59.654Z,1014.75
2022-10-31T10:28:59.208Z,1014.78
2022-10-31T10:29:59.197Z,1014.75
2022-10-31T10:30:59.228Z,1014.70
2022-10-31T10:31:59.201Z,1014.65
2022-10-31T10:32:59.234Z,1014.63
2022-10-31T10:33:59.203Z,1014.60
2022-10-31T10:34:59.195Z,1014.62
2022-10-31T10:35:59.190Z,1014.61
2022-10-31T10:36:59.213Z,1014.59
2022-10-31T10:37:59.739Z,1014.56
2022-10-31T10:38:59.196Z,1014.53
2022-10-31T10:39:59.191Z,1014.55
2022-10-31T10:40:59.186Z,1014.55
2022-10-31T10:41:59.193Z,1014.59
2022-10-31T10:42:59.196Z,1014.59
2022-10-31T10:43:59.195Z,1014.58
2022-10-31T10:44:59.185Z,1014.62
2022-10-31T10:45:59.179Z,1014.59
2022-10-31T10:46:59.185Z,1014.61
2022-10-31T10:47:59.443Z,1014.59
2022-10-31T10:48:59.196Z,1014.53
2022-10-31T10:49:59.182Z,1014.53
2022-10-31T10:50:59.183Z,1014.52
2022-10-31T10:52:19.331Z,1014.47
2022-10-31T10:52:59.169Z,1014.41
2022-10-31T10:53:59.189Z,1014.37
2022-10-31T10:54:59.175Z,1014.35
2022-10-31T10:55:59.290Z,1014.32
2022-10-31T10:56:59.168Z,1014.33
2022-10-31T10:57:59.528Z,1014.30
2022-10-31T10:58:59.161Z,1014.21
2022-10-31T10:59:59.165Z,1014.22
2022-10-31T11:00:59.285Z,1014.15
2022-10-31T11:01:59.177Z,1014.22
2022-10-31T11:02:59.249Z,1014.27
2022-10-31T11:03:59.169Z,1014.28
2022-10-31T11:04:59.180Z,1014.26
2022-10-31T11:05:59.283Z,1014.31
2022-10-31T11:06:59.175Z,1014.36
2022-10-31T11:07:59.154Z,1014.29
2022-10-31T11:08:59.151Z,1014.29
2022-10-31T11:09:59.164Z,1014.29
2022-10-31T11:10:59.195Z,1014.26
2022-10-31T11:11:59.158Z,1014.26
2022-10-31T11:12:59.523Z,1014.26
2022-10-31T11:13:59.156Z,1014.23
2022-10-31T11:14:59.145Z,1014.16
2022-10-31T11:15:59.145Z,1014.25
2022-10-31T11:16:59.142Z,1014.22
2022-10-31T11:17:59.150Z,1014.22
2022-10-31T11:18:59.157Z,1014.15
2022-10-31T11:19:59.144Z,1014.13
2022-10-31T11:20:59.216Z,1014.09
2022-10-31T11:21:59.141Z,1014.07
2022-10-31T11:22:59.142Z,1014.05
2022-10-31T11:23:59.133Z,1014.02
2022-10-31T11:24:59.144Z,1014.03
2022-10-31T11:25:59.134Z,1014.04
2022-10-31T11:26:59.139Z,1014.06
2022-10-31T11:27:59.127Z,1014.08
2022-10-31T11:28:59.129Z,1014.07
2022-10-31T11:30:00.858Z,1014.06
2022-10-31T11:30:59.133Z,1014.05
2022-10-31T11:31:59.136Z,1014.03
2022-10-31T11:32:59.393Z,1014.05
2022-10-31T11:33:59.123Z,1014.01
2022-10-31T11:34:59.122Z,1013.96
2022-10-31T11:35:59.339Z,1014.00
2022-10-31T11:36:59.147Z,1013.93
2022-10-31T11:37:59.493Z,1013.93
2022-10-31T11:38:59.117Z,1013.92
2022-10-31T11:39:59.123Z,1013.87
2022-10-31T11:40:59.127Z,1013.81
2022-10-31T11:41:59.128Z,1013.82
2022-10-31T11:42:59.121Z,1013.79
2022-10-31T11:43:59.129Z,1013.73
2022-10-31T11:44:59.112Z,1013.75
2022-10-31T11:45:59.123Z,1013.73
2022-10-31T11:46:59.110Z,1013.67
2022-10-31T11:48:00.035Z,1013.66
2022-10-31T11:48:59.104Z,1013.66
2022-10-31T11:49:59.137Z,1013.68
2022-10-31T11:50:59.123Z,1013.65
2022-10-31T11:51:59.105Z,1013.66
2022-10-31T11:52:59.122Z,1013.64
2022-10-31T11:54:02.648Z,1013.65
2022-10-31T11:54:59.098Z,1013.59
2022-10-31T11:55:59.109Z,1013.62
2022-10-31T11:56:59.097Z,1013.57
2022-10-31T11:57:59.445Z,1013.52
2022-10-31T11:58:59.092Z,1013.56
2022-10-31T11:59:59.101Z,1013.55
2022-10-31T12:00:59.098Z,1013.51
2022-10-31T12:01:59.265Z,1013.52
2022-10-31T12:02:59.363Z,1013.43
2022-10-31T12:03:59.093Z,1013.46
2022-10-31T12:04:59.088Z,1013.42
2022-10-31T12:05:59.099Z,1013.44
2022-10-31T12:06:59.097Z,1013.43
2022-10-31T12:08:03.475Z,1013.36
2022-10-31T12:08:59.103Z,1013.37
2022-10-31T12:09:59.087Z,1013.35
2022-10-31T12:10:59.088Z,1013.28